Time;durP1;ratioP1;P1;durP2;ratioP2;P2;SDS_P1;SDS_P2;PMS_P1;PMS_P2;Temp;Humidity;BMP_temperature;BMP_pressure;BME280_temperature;BME280_humidity;BME280_pressure;Samples;Min_cycle;Max_cycle;Signal;HPM_P1;HPM_P2
2023/01/24 00:00:49;;;;;;;62.10;26.88;;;0.20;99.90;;;;;;4925379;29;20027;-91
2023/01/24 00:03:15;;;;;;;66.97;30.17;;;0.20;99.90;;;;;;4949040;28;20058;-90
2023/01/24 00:05:43;;;;;;;66.47;27.80;;;0.20;99.90;;;;;;4957927;28;20019;-90
2023/01/24 00:08:12;;;;;;;59.78;27.13;;;0.10;99.90;;;;;;4975052;28;20432;-90
2023/01/24 00:10:37;;;;;;;51.47;23.85;;;0.20;99.90;;;;;;4957854;28;20027;-91
2023/01/24 00:13:03;;;;;;;53.95;25.55;;;0.20;99.90;;;;;;4956596;28;20413;-90
2023/01/24 00:15:29;;;;;;;53.00;22.05;;;0.20;99.90;;;;;;4957854;28;20019;-90
2023/01/24 00:17:54;;;;;;;58.80;25.55;;;0.10;99.90;;;;;;4974225;28;20476;-91
2023/01/24 00:20:20;;;;;;;51.55;21.92;;;0.10;99.90;;;;;;4974797;28;20022;-91
2023/01/24 00:22:46;;;;;;;48.42;21.17;;;0.10;99.90;;;;;;4957796;28;20038;-91
2023/01/24 00:25:11;;;;;;;45.67;20.45;;;0.10;99.90;;;;;;4961278;28;20029;-91
2023/01/24 00:27:37;;;;;;;48.47;21.83;;;0.00;99.90;;;;;;4961244;28;20034;-91
2023/01/24 00:30:05;;;;;;;44.22;21.02;;;0.00;99.90;;;;;;4978388;28;20023;-90
2023/01/24 00:32:32;;;;;;;45.40;21.10;;;0.00;99.90;;;;;;4960510;28;20117;-91
2023/01/24 00:34:58;;;;;;;42.35;20.27;;;0.00;99.90;;;;;;4960960;28;20027;-91
2023/01/24 00:37:25;;;;;;;42.67;19.95;;;0.00;99.90;;;;;;4960959;28;20023;-91
2023/01/24 00:39:51;;;;;;;46.42;20.55;;;0.10;99.90;;;;;;4960831;28;20037;-90
2023/01/24 00:42:16;;;;;;;43.70;19.35;;;0.10;99.90;;;;;;4960644;28;20042;-91
2023/01/24 00:44:42;;;;;;;43.40;19.85;;;0.10;99.90;;;;;;4960881;28;20049;-92
2023/01/24 00:47:08;;;;;;;43.22;19.48;;;0.20;99.90;;;;;;4960315;28;20034;-92
2023/01/24 00:49:33;;;;;;;48.05;20.75;;;0.10;99.90;;;;;;4960090;28;20082;-90
2023/01/24 00:51:59;;;;;;;39.85;20.25;;;0.10;99.90;;;;;;4960059;28;20027;-90
2023/01/24 00:54:25;;;;;;;40.88;18.70;;;0.20;99.90;;;;;;4960228;28;20098;-92
2023/01/24 00:56:50;;;;;;;42.75;19.95;;;0.10;99.90;;;;;;4977157;28;20030;-90
2023/01/24 00:59:16;;;;;;;48.30;23.30;;;0.10;99.90;;;;;;4959864;28;20015;-91
2023/01/24 01:01:42;;;;;;;51.63;25.08;;;0.00;99.90;;;;;;4956555;28;20035;-91
2023/01/24 01:04:09;;;;;;;55.47;27.42;;;0.00;99.90;;;;;;4956854;28;20054;-90
2023/01/24 01:06:35;;;;;;;57.72;27.15;;;-0.10;99.90;;;;;;4956996;28;20441;-91
2023/01/24 01:09:01;;;;;;;61.08;28.83;;;-0.10;99.90;;;;;;4961365;28;20035;-90
2023/01/24 01:11:26;;;;;;;63.72;29.75;;;-0.10;99.90;;;;;;4958690;28;20023;-90
2023/01/24 01:13:55;;;;;;;56.17;26.77;;;-0.20;99.90;;;;;;4961155;28;20035;-88
2023/01/24 01:16:22;;;;;;;53.85;26.60;;;-0.20;99.90;;;;;;4957219;29;20365;-89
2023/01/24 01:18:49;;;;;;;52.85;24.20;;;-0.20;99.90;;;;;;4955688;28;20281;-89
2023/01/24 01:21:17;;;;;;;52.63;23.83;;;-0.20;99.90;;;;;;4955972;28;20031;-90
2023/01/24 01:23:43;;;;;;;44.53;21.83;;;-0.20;99.90;;;;;;4956081;28;20097;-89
2023/01/24 01:26:14;;;;;;;50.10;22.67;;;-0.20;99.90;;;;;;4959056;28;20030;-91
2023/01/24 01:28:40;;;;;;;43.67;21.90;;;-0.20;99.90;;;;;;4959311;28;20428;-91
2023/01/24 01:31:05;;;;;;;40.60;21.08;;;-0.20;99.90;;;;;;4959310;28;20062;-90
2023/01/24 01:33:31;;;;;;;50.00;22.50;;;-0.10;99.90;;;;;;4959403;28;20025;-91
2023/01/24 01:35:57;;;;;;;47.75;22.50;;;-0.10;99.90;;;;;;4957717;28;20118;-90
2023/01/24 01:38:24;;;;;;;46.00;20.67;;;-0.10;99.90;;;;;;4958637;28;20022;-90
2023/01/24 01:40:50;;;;;;;47.78;22.40;;;-0.10;99.90;;;;;;4958767;28;20030;-89
2023/01/24 01:43:21;;;;;;;49.08;22.70;;;-0.20;99.90;;;;;;4959289;28;20037;-90
2023/01/24 01:45:51;;;;;;;47.35;20.27;;;-0.20;99.90;;;;;;4959315;28;20027;-90
2023/01/24 01:48:19;;;;;;;45.35;19.60;;;-0.20;99.90;;;;;;4959186;28;20142;-89
2023/01/24 01:51:20;;;;;;;43.22;18.90;;;-0.20;99.90;;;;;;4958521;28;20118;-89
2023/01/24 01:53:51;;;;;;;;;;;-0.30;99.90;;;;;;4958982;28;20039;-90
2023/01/24 01:56:27;;;;;;;38.83;17.08;;;-0.30;99.90;;;;;;4958766;28;19910;-89
2023/01/24 01:58:55;;;;;;;46.33;19.92;;;-0.30;99.90;;;;;;4959724;28;20023;-90
2023/01/24 02:01:21;;;;;;;54.15;24.33;;;-0.30;99.90;;;;;;4958217;28;20034;-90
2023/01/24 02:03:53;;;;;;;52.80;23.90;;;-0.40;99.90;;;;;;4955277;28;20051;-90
2023/01/24 02:06:30;;;;;;;48.90;22.83;;;-0.40;99.90;;;;;;4956483;29;20031;-90
2023/01/24 02:08:57;;;;;;;51.17;22.08;;;-0.40;99.90;;;;;;4954928;28;20031;-90
2023/01/24 02:11:40;;;;;;;48.28;22.17;;;-0.50;99.90;;;;;;4954488;28;20027;-90
2023/01/24 02:17:01;;;;;;;55.58;26.05;;;-0.50;99.90;;;;;;4916124;29;20032;-90
2023/01/24 02:19:48;;;;;;;52.10;24.17;;;-0.50;99.90;;;;;;4900872;29;20039;-90
2023/01/24 02:22:20;;;;;;;42.35;19.88;;;-0.50;99.90;;;;;;4908638;29;20044;-90
2023/01/24 02:24:59;;;;;;;34.38;16.95;;;-0.50;99.90;;;;;;4902036;29;20028;-90
2023/01/24 02:27:24;;;;;;;40.55;18.27;;;-0.50;99.90;;;;;;4900772;29;20147;-90
2023/01/24 02:29:50;;;;;;;35.92;18.00;;;-0.50;99.90;;;;;;4904931;29;20055;-90
2023/01/24 02:32:17;;;;;;;30.67;15.80;;;-0.50;99.90;;;;;;4903951;29;20035;-90
2023/01/24 02:34:42;;;;;;;40.95;18.73;;;-0.50;99.90;;;;;;4905465;29;20180;-88
2023/01/24 02:37:13;;;;;;;40.78;18.02;;;-0.50;99.90;;;;;;4907810;29;20088;-90
2023/01/24 02:39:50;;;;;;;36.90;16.25;;;-0.50;99.90;;;;;;4904414;29;20576;-90
2023/01/24 02:42:22;;;;;;;62.90;27.15;;;-0.50;99.90;;;;;;4906882;29;20052;-90
2023/01/24 02:45:11;;;;;;;48.58;20.20;;;-0.50;99.90;;;;;;4908649;29;20084;-89
2023/01/24 02:47:44;;;;;;;45.55;20.80;;;-0.60;99.90;;;;;;4910344;29;20203;-90
2023/01/24 02:50:11;;;;;;;49.60;22.30;;;-0.60;99.90;;;;;;4905073;29;20032;-89
2023/01/24 02:55:21;;;;;;;55.67;24.55;;;-0.70;99.90;;;;;;4959569;29;20106;-89
2023/01/24 02:58:05;;;;;;;62.22;25.38;;;-0.70;99.90;;;;;;4958752;29;20031;-90
2023/01/24 03:00:33;;;;;;;58.35;26.15;;;-0.70;99.90;;;;;;4958485;29;20027;-89
2023/01/24 03:02:59;;;;;;;61.47;26.05;;;-0.70;99.90;;;;;;4963751;28;20055;-89
2023/01/24 03:05:25;;;;;;;74.97;31.38;;;-0.80;99.90;;;;;;4967055;28;20099;-90
2023/01/24 03:07:50;;;;;;;69.32;29.35;;;-0.80;99.90;;;;;;4967090;28;20027;-90
2023/01/24 03:10:19;;;;;;;70.03;30.00;;;-0.80;99.90;;;;;;4964136;28;20125;-90
2023/01/24 03:34:48;;;;;;;35.28;16.00;;;-0.70;99.90;;;;;;4960888;29;20042;-91
2023/01/24 03:37:16;;;;;;;30.15;14.60;;;-0.60;99.90;;;;;;4958279;29;20028;-93
2023/01/24 03:39:58;;;;;;;39.80;19.70;;;-0.60;99.90;;;;;;4957790;29;20163;-92
2023/01/24 03:42:27;;;;;;;49.08;19.90;;;-0.60;99.90;;;;;;4959055;29;20039;-91
2023/01/24 03:44:53;;;;;;;57.53;24.45;;;-0.60;99.90;;;;;;4959696;29;20083;-92
2023/01/24 03:47:19;;;;;;;55.30;26.33;;;-0.70;99.90;;;;;;4959729;29;20039;-92
2023/01/24 03:52:28;;;;;;;56.50;24.45;;;-0.70;99.90;;;;;;4976177;28;20067;-91
2023/01/24 03:55:03;;;;;;;56.15;23.35;;;-0.80;99.90;;;;;;4976457;28;20032;-91
2023/01/24 03:57:29;;;;;;;46.42;21.20;;;-0.80;99.90;;;;;;4960089;28;20039;-91
2023/01/24 03:59:55;;;;;;;44.53;19.90;;;-0.80;99.90;;;;;;4962260;28;20054;-91
2023/01/24 04:02:21;;;;;;;41.28;18.23;;;-0.90;99.90;;;;;;4959954;28;20180;-92
2023/01/24 04:07:31;;;;;;;41.42;19.20;;;-0.90;99.90;;;;;;4961488;29;20061;-90
2023/01/24 04:09:58;;;;;;;46.05;20.00;;;-1.00;99.90;;;;;;4960222;28;20396;-89
2023/01/24 04:12:24;;;;;;;43.08;19.75;;;-1.00;99.90;;;;;;4960324;29;20028;-91
2023/01/24 04:14:50;;;;;;;55.30;22.77;;;-1.00;99.90;;;;;;4960477;29;20105;-90
2023/01/24 04:17:15;;;;;;;47.80;21.48;;;-0.90;99.90;;;;;;4959356;29;20031;-90
2023/01/24 04:19:41;;;;;;;45.47;20.83;;;-1.00;99.90;;;;;;4965362;28;20153;-90
2023/01/24 04:22:07;;;;;;;48.17;21.38;;;-0.90;99.90;;;;;;4959003;28;20604;-90
2023/01/24 04:24:33;;;;;;;50.72;21.75;;;-0.90;99.90;;;;;;4959172;28;20090;-91
2023/01/24 04:26:59;;;;;;;50.97;21.63;;;-0.90;99.90;;;;;;4943141;29;20043;-90
2023/01/24 04:29:24;;;;;;;50.35;22.08;;;-0.90;99.90;;;;;;4958923;28;20032;-91
2023/01/24 04:31:50;;;;;;;46.65;21.45;;;-0.90;99.90;;;;;;4958644;29;20090;-91
2023/01/24 04:34:16;;;;;;;60.08;25.27;;;-0.90;99.90;;;;;;4958907;28;20035;-90
2023/01/24 04:36:41;;;;;;;59.33;26.15;;;-0.80;99.90;;;;;;4958627;28;20032;-90
2023/01/24 04:39:07;;;;;;;54.83;25.63;;;-0.90;99.90;;;;;;4957917;28;20066;-90
2023/01/24 04:41:33;;;;;;;61.88;25.63;;;-1.00;99.90;;;;;;4958330;28;20035;-92
2023/01/24 04:43:59;;;;;;;61.78;25.65;;;-1.00;99.90;;;;;;4957947;28;20054;-91
2023/01/24 04:46:24;;;;;;;56.72;26.58;;;-1.00;99.90;;;;;;4961102;28;20023;-91
2023/01/24 04:48:50;;;;;;;50.95;23.35;;;-1.00;99.90;;;;;;4970978;29;20035;-92
2023/01/24 04:51:16;;;;;;;46.80;22.25;;;-1.10;99.90;;;;;;4959040;29;20122;-91
2023/01/24 04:53:41;;;;;;;44.30;20.65;;;-1.20;99.90;;;;;;4957494;28;20059;-90
2023/01/24 04:56:08;;;;;;;42.47;17.55;;;-1.10;99.90;;;;;;4957565;28;20035;-91
2023/01/24 04:58:34;;;;;;;40.05;17.70;;;-1.10;99.90;;;;;;4957402;28;20031;-91
2023/01/24 05:01:00;;;;;;;36.25;16.73;;;-1.10;99.90;;;;;;4957156;28;20579;-93
2023/01/24 05:03:27;;;;;;;34.25;17.58;;;-1.10;99.90;;;;;;4961264;28;20058;-89
2023/01/24 05:05:54;;;;;;;34.55;15.88;;;-1.20;99.90;;;;;;4960703;28;20023;-91
2023/01/24 05:08:21;;;;;;;34.00;16.65;;;-1.20;99.90;;;;;;4960656;28;20031;-92
2023/01/24 05:10:47;;;;;;;46.22;19.40;;;-1.10;99.90;;;;;;4960142;28;20129;-91
2023/01/24 05:13:13;;;;;;;40.10;17.27;;;-1.10;99.90;;;;;;4977706;28;20480;-92
2023/01/24 05:15:45;;;;;;;36.92;15.85;;;-1.10;99.90;;;;;;4960627;28;20035;-89
2023/01/24 05:18:10;;;;;;;33.45;14.40;;;-1.00;99.90;;;;;;4960851;28;20114;-90
2023/01/24 05:20:36;;;;;;;30.58;14.52;;;-0.90;99.90;;;;;;4960553;28;20065;-89
2023/01/24 05:23:02;;;;;;;37.35;17.48;;;-1.00;99.90;;;;;;4960529;28;20503;-90
2023/01/24 05:25:27;;;;;;;48.28;20.08;;;-1.00;99.90;;;;;;4960530;28;20019;-90
2023/01/24 05:27:53;;;;;;;53.25;20.50;;;-1.00;99.90;;;;;;4960433;28;20515;-90
2023/01/24 05:30:19;;;;;;;47.20;19.10;;;-1.10;99.90;;;;;;4960016;28;20381;-90
2023/01/24 05:32:44;;;;;;;70.53;27.33;;;-1.10;99.90;;;;;;4959358;28;20062;-91
2023/01/24 05:35:10;;;;;;;41.05;18.67;;;-1.10;99.90;;;;;;4959635;28;20050;-91
2023/01/24 05:37:37;;;;;;;51.65;21.65;;;-1.10;99.90;;;;;;4959504;28;20031;-92
2023/01/24 05:40:04;;;;;;;63.92;23.00;;;-1.20;99.90;;;;;;4959050;28;20126;-91
2023/01/24 05:42:30;;;;;;;52.08;21.83;;;-1.20;99.90;;;;;;4960202;28;20125;-93
2023/01/24 05:44:56;;;;;;;45.65;20.42;;;-1.20;99.90;;;;;;4959784;28;20022;-91
2023/01/24 05:47:22;;;;;;;34.63;15.77;;;-1.20;99.90;;;;;;4959662;28;20026;-90
2023/01/24 05:49:48;;;;;;;39.88;17.33;;;-1.20;99.90;;;;;;4959585;28;20018;-91
2023/01/24 05:52:18;;;;;;;38.90;17.42;;;-1.20;99.90;;;;;;4959783;28;20058;-91
2023/01/24 05:54:44;;;;;;;35.05;16.70;;;-1.20;99.90;;;;;;4970649;28;20023;-90
2023/01/24 05:57:10;;;;;;;34.05;16.00;;;-1.20;99.90;;;;;;4959186;28;20037;-93
2023/01/24 05:59:35;;;;;;;38.25;16.73;;;-1.20;99.90;;;;;;4959311;28;20435;-92
2023/01/24 06:02:01;;;;;;;35.30;16.58;;;-1.20;99.90;;;;;;4958317;28;20061;-91
2023/01/24 06:04:27;;;;;;;39.75;17.13;;;-1.20;99.90;;;;;;4959082;28;20023;-91
2023/01/24 06:06:52;;;;;;;38.67;16.83;;;-1.20;99.90;;;;;;4958822;28;20035;-92
2023/01/24 06:09:18;;;;;;;43.72;19.77;;;-1.20;99.90;;;;;;4958054;28;20124;-92
2023/01/24 06:11:44;;;;;;;64.82;25.30;;;-1.30;99.90;;;;;;4958274;28;20410;-92
2023/01/24 06:14:09;;;;;;;65.78;25.80;;;-1.30;99.90;;;;;;4958184;28;20058;-91
2023/01/24 06:16:35;;;;;;;56.15;23.45;;;-1.30;99.90;;;;;;4958333;28;20071;-92
2023/01/24 06:19:01;;;;;;;51.97;22.02;;;-1.30;99.90;;;;;;4958750;28;20049;-91
2023/01/24 06:21:45;;;;;;;48.08;21.98;;;-1.40;99.90;;;;;;4957870;28;20523;-93
2023/01/24 06:24:23;;;;;;;49.58;20.23;;;-1.40;99.90;;;;;;4958642;28;20037;-91
2023/01/24 06:26:50;;;;;;;45.20;18.35;;;-1.40;99.90;;;;;;4957954;28;20042;-91
2023/01/24 06:29:19;;;;;;;37.10;16.65;;;-1.40;99.90;;;;;;4957964;28;20117;-92
2023/01/24 06:31:54;;;;;;;41.53;17.90;;;-1.40;99.90;;;;;;4957944;28;20130;-92
2023/01/24 06:34:48;;;;;;;43.65;18.77;;;-1.40;99.90;;;;;;4974140;28;20023;-92
2023/01/24 06:37:36;;;;;;;39.50;15.95;;;-1.50;99.90;;;;;;4974337;28;20117;-92
2023/01/24 06:40:08;;;;;;;33.10;15.48;;;-1.40;99.90;;;;;;4973710;28;20038;-92
2023/01/24 06:42:34;;;;;;;42.40;17.58;;;-1.40;99.90;;;;;;4957508;28;20493;-90
2023/01/24 06:45:00;;;;;;;49.13;19.88;;;-1.40;99.90;;;;;;4957600;28;20023;-92
2023/01/24 06:47:27;;;;;;;43.20;18.45;;;-1.50;99.90;;;;;;4957545;28;20030;-93
2023/01/24 06:49:53;;;;;;;46.08;16.88;;;-1.40;99.90;;;;;;4957769;28;20109;-92
2023/01/24 06:52:22;;;;;;;35.65;15.70;;;-1.40;99.90;;;;;;4958160;28;20069;-93
2023/01/24 06:54:48;;;;;;;41.92;17.70;;;-1.40;99.90;;;;;;4957858;28;20046;-93
2023/01/24 06:57:13;;;;;;;42.38;19.27;;;-1.30;99.90;;;;;;4957748;28;20073;-92
2023/01/24 06:59:39;;;;;;;36.08;17.00;;;-1.30;99.90;;;;;;4957898;28;20023;-94
2023/01/24 07:02:05;;;;;;;46.85;19.65;;;-1.30;99.90;;;;;;4957234;28;20519;-92
2023/01/24 07:04:31;;;;;;;48.33;21.00;;;-1.30;99.90;;;;;;4958109;28;20027;-93
2023/01/24 07:06:57;;;;;;;61.45;26.05;;;-1.30;99.90;;;;;;4958394;28;20050;-93
2023/01/24 07:09:23;;;;;;;72.22;27.67;;;-1.20;99.90;;;;;;4958871;28;20027;-94
2023/01/24 07:11:52;;;;;;;70.18;26.38;;;-1.30;99.90;;;;;;4960617;28;20065;-90
2023/01/24 07:14:18;;;;;;;69.63;29.30;;;-1.30;99.90;;;;;;4966447;28;20035;-94
2023/01/24 07:16:51;;;;;;;79.97;30.80;;;-1.30;99.90;;;;;;4978649;28;20030;-92
2023/01/24 07:19:22;;;;;;;74.90;34.30;;;-1.30;99.90;;;;;;4960238;28;20043;-93
2023/01/24 07:21:48;;;;;;;87.57;34.22;;;-1.30;99.90;;;;;;4960132;28;20058;-93
2023/01/24 07:24:20;;;;;;;69.53;29.10;;;-1.30;99.90;;;;;;4962883;28;20027;-95
2023/01/24 07:26:48;;;;;;;68.15;29.52;;;-1.30;99.90;;;;;;4966729;28;20077;-93
2023/01/24 07:29:13;;;;;;;69.22;26.13;;;-1.30;99.90;;;;;;4962502;28;20031;-93
2023/01/24 07:31:42;;;;;;;60.55;27.60;;;-1.30;99.90;;;;;;4959164;28;20034;-93
2023/01/24 07:34:11;;;;;;;59.97;25.98;;;-1.30;99.90;;;;;;4968445;28;20232;-93
2023/01/24 07:36:36;;;;;;;59.80;26.20;;;-1.30;99.90;;;;;;4970944;28;20113;-93
2023/01/24 07:39:05;;;;;;;88.85;35.45;;;-1.20;99.90;;;;;;4967968;28;20053;-92
2023/01/24 07:41:31;;;;;;;79.63;33.22;;;-1.20;99.90;;;;;;4972998;28;20031;-93
2023/01/24 07:43:57;;;;;;;73.78;32.15;;;-1.20;99.90;;;;;;4966049;28;20062;-93
2023/01/24 07:46:22;;;;;;;67.10;28.13;;;-1.30;99.90;;;;;;4965499;28;20023;-93
2023/01/24 07:48:48;;;;;;;61.33;28.02;;;-1.30;99.90;;;;;;4967584;28;20041;-93
2023/01/24 07:51:15;;;;;;;65.47;27.35;;;-1.20;99.90;;;;;;4967357;28;20062;-94
2023/01/24 07:53:40;;;;;;;61.80;26.67;;;-1.30;99.90;;;;;;4966782;28;20042;-93
2023/01/24 07:56:06;;;;;;;62.65;25.70;;;-1.30;99.90;;;;;;4964934;28;20019;-92
2023/01/24 07:58:32;;;;;;;59.55;25.40;;;-1.30;99.90;;;;;;4971169;28;20034;-94
2023/01/24 08:00:58;;;;;;;56.92;23.88;;;-1.30;99.90;;;;;;4974994;28;20081;-94
2023/01/24 08:03:24;;;;;;;58.17;24.50;;;-1.40;99.90;;;;;;4969811;28;20054;-94
2023/01/24 08:05:50;;;;;;;60.78;26.60;;;-1.40;99.90;;;;;;4969225;28;20033;-94
2023/01/24 08:08:15;;;;;;;63.38;26.35;;;-1.40;99.90;;;;;;4968215;28;20122;-94
2023/01/24 08:10:41;;;;;;;63.63;24.95;;;-1.40;99.90;;;;;;4965524;28;20078;-94
2023/01/24 08:13:07;;;;;;;48.65;22.27;;;-1.40;99.90;;;;;;4963138;28;20041;-95
2023/01/24 08:15:32;;;;;;;58.50;24.80;;;-1.30;99.90;;;;;;4962163;28;20114;-94
2023/01/24 08:18:01;;;;;;;60.42;25.95;;;-1.20;99.90;;;;;;4961288;28;20042;-96
2023/01/24 08:20:29;;;;;;;56.13;24.27;;;-1.20;99.90;;;;;;4961745;28;20019;-94
2023/01/24 08:22:55;;;;;;;72.18;26.48;;;-1.10;99.90;;;;;;4980849;28;20109;-95
2023/01/24 08:25:21;;;;;;;78.43;29.13;;;-1.10;99.90;;;;;;4961030;28;20119;-90
2023/01/24 08:27:47;;;;;;;80.80;29.60;;;-1.00;99.90;;;;;;4960721;28;20477;-91
2023/01/24 08:30:12;;;;;;;88.45;30.52;;;-1.00;99.90;;;;;;4951464;28;20465;-92
2023/01/24 08:32:38;;;;;;;74.53;30.58;;;-0.90;99.90;;;;;;4956160;28;20458;-90
2023/01/24 08:35:04;;;;;;;70.72;29.48;;;-0.90;99.90;;;;;;4954351;28;20031;-93
2023/01/24 08:37:30;;;;;;;69.07;28.15;;;-0.90;99.90;;;;;;4948986;28;20106;-91
2023/01/24 08:39:58;;;;;;;74.00;30.40;;;-0.90;99.90;;;;;;4950926;28;20046;-93
2023/01/24 08:42:24;;;;;;;74.28;30.17;;;-0.90;99.90;;;;;;4947947;28;20035;-91
2023/01/24 08:44:50;;;;;;;73.10;28.85;;;-1.00;99.90;;;;;;4948223;28;20025;-91
2023/01/24 08:47:16;;;;;;;62.05;24.00;;;-1.00;99.90;;;;;;4949209;28;20023;-90
2023/01/24 08:49:42;;;;;;;54.15;25.25;;;-1.00;99.90;;;;;;4949710;28;20166;-90
2023/01/24 08:52:08;;;;;;;66.78;28.10;;;-0.90;99.90;;;;;;4968905;28;20480;-91
2023/01/24 08:54:35;;;;;;;77.82;29.73;;;-0.80;99.90;;;;;;4953075;28;20031;-91
2023/01/24 08:57:04;;;;;;;75.07;30.80;;;-0.60;99.90;;;;;;4973058;28;20099;-91
2023/01/24 08:59:29;;;;;;;83.85;30.40;;;-0.40;99.90;;;;;;4948278;28;20365;-90
2023/01/24 09:01:55;;;;;;;80.60;29.98;;;-0.30;99.90;;;;;;4948465;28;20051;-90
2023/01/24 09:04:21;;;;;;;82.03;30.60;;;-0.10;99.90;;;;;;4954571;28;20038;-90
2023/01/24 09:06:47;;;;;;;99.00;33.88;;;0.10;99.90;;;;;;4951760;28;20123;-91
2023/01/24 09:09:12;;;;;;;76.60;29.02;;;0.30;99.90;;;;;;4952508;28;20026;-90
2023/01/24 09:11:38;;;;;;;65.35;27.17;;;0.40;99.90;;;;;;4950100;28;20022;-90
2023/01/24 09:14:04;;;;;;;107.97;32.25;;;0.60;99.90;;;;;;4947461;28;20054;-90
2023/01/24 09:16:30;;;;;;;92.80;30.13;;;0.70;99.90;;;;;;4948957;28;20019;-90
2023/01/24 09:18:55;;;;;;;88.60;31.13;;;0.80;99.90;;;;;;4958756;28;20023;-89
2023/01/24 09:21:21;;;;;;;77.55;29.17;;;0.90;99.90;;;;;;4958884;28;20041;-89
2023/01/24 09:23:47;;;;;;;85.53;30.33;;;1.00;99.90;;;;;;4955856;28;20095;-89
2023/01/24 09:26:13;;;;;;;91.57;32.95;;;1.10;99.90;;;;;;4939932;29;20135;-90
2023/01/24 09:28:39;;;;;;;71.95;32.30;;;1.20;99.90;;;;;;4939410;29;20090;-89
2023/01/24 09:31:07;;;;;;;80.85;31.02;;;1.40;99.90;;;;;;4940432;29;20531;-90
2023/01/24 09:33:33;;;;;;;88.78;32.58;;;1.50;99.90;;;;;;4939724;28;20039;-91
2023/01/24 09:36:01;;;;;;;80.90;33.28;;;1.60;99.90;;;;;;4939726;29;20027;-90
2023/01/24 09:38:29;;;;;;;77.68;32.58;;;1.70;99.90;;;;;;4939896;29;20043;-90
2023/01/24 09:41:17;;;;;;;72.95;29.63;;;1.80;99.90;;;;;;4939762;29;20027;-89
2023/01/24 09:43:49;;;;;;;72.15;29.30;;;1.90;99.90;;;;;;4956667;28;20501;-89
2023/01/24 09:46:24;;;;;;;64.90;27.88;;;2.00;99.90;;;;;;4939604;28;20054;-88
2023/01/24 09:48:58;;;;;;;71.90;27.15;;;2.00;99.90;;;;;;4939654;29;20023;-88
2023/01/24 09:51:29;;;;;;;72.75;27.67;;;2.10;99.90;;;;;;4939184;29;20031;-87
2023/01/24 09:53:58;;;;;;;65.68;28.38;;;2.20;99.90;;;;;;4970239;28;20027;-89
2023/01/24 09:56:33;;;;;;;70.47;26.92;;;2.20;99.90;;;;;;4956213;28;20031;-87
2023/01/24 09:59:23;;;;;;;83.70;30.23;;;2.20;99.90;;;;;;4957125;28;20070;-87
2023/01/24 10:01:51;;;;;;;141.98;37.72;;;2.10;99.90;;;;;;4956154;28;20022;-88
2023/01/24 10:04:28;;;;;;;90.72;32.72;;;2.10;99.90;;;;;;4957026;28;20066;-89
2023/01/24 10:07:21;;;;;;;75.43;25.88;;;2.00;99.90;;;;;;4956985;28;20424;-90
2023/01/24 10:10:22;;;;;;;65.15;24.38;;;1.90;99.90;;;;;;4956874;28;20035;-90
2023/01/24 10:13:29;;;;;;;57.22;23.77;;;1.90;99.90;;;;;;4972538;28;20034;-88
2023/01/24 10:16:41;;;;;;;58.92;22.85;;;1.80;99.90;;;;;;4956641;28;20034;-87
2023/01/24 10:19:10;;;;;;;65.13;21.77;;;1.80;99.90;;;;;;4956319;28;20023;-88
2023/01/24 10:21:44;;;;;;;62.38;23.80;;;1.80;99.90;;;;;;4956527;28;20046;-87
2023/01/24 10:24:17;;;;;;;57.38;21.92;;;1.70;99.90;;;;;;4957543;28;20078;-89
2023/01/24 10:26:48;;;;;;;69.90;22.58;;;1.70;99.90;;;;;;4957669;28;20031;-88
2023/01/24 10:29:22;;;;;;;55.90;22.25;;;1.70;99.90;;;;;;4957695;28;20066;-88
2023/01/24 10:32:16;;;;;;;50.42;21.90;;;1.70;99.90;;;;;;4957798;28;20040;-90
2023/01/24 10:34:47;;;;;;;52.55;19.73;;;1.70;99.90;;;;;;4957079;28;20038;-87
2023/01/24 10:37:25;;;;;;;49.22;20.65;;;1.70;99.90;;;;;;4960005;28;20030;-89
2023/01/24 10:39:54;;;;;;;49.47;20.05;;;1.70;99.90;;;;;;4959894;28;20031;-89
2023/01/24 10:42:30;;;;;;;54.47;21.73;;;1.70;99.90;;;;;;4958523;28;20050;-89
2023/01/24 10:45:01;;;;;;;46.22;20.27;;;1.70;99.90;;;;;;4958391;28;20480;-89
2023/01/24 10:48:00;;;;;;;45.75;20.00;;;1.70;99.90;;;;;;4959833;28;20117;-89
2023/01/24 10:50:35;;;;;;;51.78;20.00;;;1.80;99.90;;;;;;4958128;28;20452;-89
2023/01/24 10:53:26;;;;;;;50.47;19.77;;;1.80;99.90;;;;;;4975600;28;20384;-89
2023/01/24 10:56:00;;;;;;;44.05;17.77;;;1.90;99.90;;;;;;4958100;28;20507;-89
2023/01/24 10:58:35;;;;;;;60.10;21.80;;;2.00;99.90;;;;;;4957817;28;20506;-89
2023/01/24 11:01:17;;;;;;;57.05;19.52;;;2.00;99.90;;;;;;4974952;28;20483;-89
2023/01/24 11:03:44;;;;;;;47.63;19.75;;;2.00;99.90;;;;;;4954298;29;20184;-89
2023/01/24 11:06:33;;;;;;;57.65;20.75;;;2.10;99.90;;;;;;4953914;28;20114;-90
2023/01/24 11:09:12;;;;;;;49.95;20.00;;;2.20;99.90;;;;;;4954018;28;20074;-91
2023/01/24 11:11:59;;;;;;;62.70;23.60;;;2.20;99.90;;;;;;4954076;28;20023;-90
2023/01/24 11:14:37;;;;;;;73.78;24.15;;;2.30;99.90;;;;;;4953749;29;20031;-91
2023/01/24 11:17:07;;;;;;;57.70;23.45;;;2.30;99.90;;;;;;4953860;28;20491;-91
2023/01/24 11:19:34;;;;;;;;;;;2.40;99.90;;;;;;4954500;29;20046;-91
2023/01/24 11:22:20;;;;;;;54.72;20.83;;;2.40;99.90;;;;;;4954043;28;19918;-90
2023/01/24 11:24:46;;;;;;;46.03;20.90;;;2.50;99.90;;;;;;4954064;28;20055;-90
2023/01/24 11:27:14;;;;;;;63.97;22.90;;;2.50;99.90;;;;;;4954255;28;20039;-90
2023/01/24 11:29:39;;;;;;;67.18;22.00;;;2.60;99.90;;;;;;4953973;28;20535;-90
2023/01/24 11:32:39;;;;;;;52.25;21.42;;;2.60;99.90;;;;;;4953673;28;20038;-92
2023/01/24 11:35:34;;;;;;;51.40;21.70;;;2.70;99.90;;;;;;4953673;28;20035;-91
2023/01/24 11:38:18;;;;;;;49.05;20.30;;;2.80;99.90;;;;;;4953170;28;20070;-91
2023/01/24 11:40:54;;;;;;;48.13;19.60;;;2.80;99.90;;;;;;4953969;28;20056;-90
2023/01/24 11:43:33;;;;;;;52.00;20.13;;;2.90;99.90;;;;;;4954827;28;20031;-90
2023/01/24 11:46:11;;;;;;;60.72;22.13;;;3.00;99.90;;;;;;4953638;28;20035;-90
2023/01/24 11:48:56;;;;;;;46.00;19.75;;;3.00;99.90;;;;;;4953496;28;20126;-90
2023/01/24 11:51:22;;;;;;;57.33;21.95;;;3.00;99.90;;;;;;4953895;28;20027;-89
2023/01/24 11:54:06;;;;;;;52.95;19.75;;;3.00;99.90;;;;;;4953650;28;20119;-89
2023/01/24 11:57:07;;;;;;;49.83;19.17;;;3.00;99.90;;;;;;4953689;28;20035;-89
2023/01/24 11:59:58;;;;;;;57.33;23.30;;;3.10;99.90;;;;;;4953272;28;20647;-90
2023/01/24 12:02:42;;;;;;;;;;;3.10;99.90;;;;;;4953973;28;20048;-91
2023/01/24 12:05:31;;;;;;;64.72;21.25;;;3.20;99.90;;;;;;4953779;29;19915;-91
2023/01/24 12:08:31;;;;;;;64.88;21.85;;;3.30;99.90;;;;;;4953969;29;20027;-90
2023/01/24 12:11:20;;;;;;;54.40;20.35;;;3.40;99.90;;;;;;4955025;29;20045;-90
2023/01/24 12:14:26;;;;;;;53.20;22.17;;;3.40;99.90;;;;;;4953778;28;20031;-92
2023/01/24 12:17:30;;;;;;;56.42;20.80;;;3.50;99.90;;;;;;4958971;28;20046;-90
2023/01/24 12:19:55;;;;;;;57.90;21.73;;;3.50;99.90;;;;;;4951664;28;20028;-91
2023/01/24 12:22:29;;;;;;;44.35;19.90;;;3.50;99.90;;;;;;4956925;28;20043;-91
2023/01/24 12:25:47;;;;;;;52.83;22.02;;;3.60;99.90;;;;;;4952808;28;20031;-92
2023/01/24 12:28:19;;;;;;;44.22;19.35;;;3.60;99.90;;;;;;4888795;29;20721;-89
2023/01/24 12:30:51;;;;;;;44.30;19.55;;;3.70;99.90;;;;;;4874543;29;20041;-91
2023/01/24 12:33:40;;;;;;;39.25;18.45;;;3.80;99.90;;;;;;4883837;29;20470;-92
2023/01/24 12:36:43;;;;;;;49.03;19.35;;;3.80;99.90;;;;;;4883496;29;20557;-92
2023/01/24 12:39:20;;;;;;;44.03;19.20;;;3.80;99.90;;;;;;4883703;29;20028;-91
2023/01/24 12:41:56;;;;;;;45.22;19.70;;;3.90;99.90;;;;;;4898716;29;20483;-90
2023/01/24 12:44:34;;;;;;;45.67;19.75;;;3.90;99.90;;;;;;4882546;29;20069;-89
2023/01/24 12:47:25;;;;;;;48.15;20.30;;;3.90;99.90;;;;;;4901150;29;20119;-91
2023/01/24 12:50:08;;;;;;;44.08;20.08;;;3.90;99.90;;;;;;4900601;29;20043;-92
2023/01/24 12:52:59;;;;;;;50.70;20.70;;;3.90;99.90;;;;;;4901970;29;20362;-92
2023/01/24 12:55:39;;;;;;;41.08;18.80;;;4.00;99.90;;;;;;4917125;29;20046;-92
2023/01/24 12:58:16;;;;;;;49.97;20.60;;;4.00;99.90;;;;;;4901408;29;20035;-91
2023/01/24 13:01:07;;;;;;;49.50;20.02;;;4.10;99.90;;;;;;4898309;29;20053;-93
2023/01/24 13:03:51;;;;;;;42.00;17.65;;;4.00;99.90;;;;;;4954227;28;20044;-92
2023/01/24 13:06:54;;;;;;;40.72;16.42;;;4.10;99.90;;;;;;4938912;29;20031;-92
2023/01/24 13:09:35;;;;;;;32.05;16.15;;;4.10;99.90;;;;;;4942540;28;20031;-93
2023/01/24 13:12:02;;;;;;;;;;;4.10;99.90;;;;;;4940667;29;20083;-92
2023/01/24 13:14:40;;;;;;;36.47;16.23;;;4.10;99.90;;;;;;4957302;29;19915;-91
2023/01/24 13:17:45;;;;;;;41.28;18.77;;;4.00;99.90;;;;;;4957394;28;20031;-92
2023/01/24 13:20:51;;;;;;;45.17;17.27;;;4.10;99.90;;;;;;4957151;28;20031;-91
2023/01/24 13:23:29;;;;;;;46.30;19.08;;;4.10;99.90;;;;;;4955420;29;20032;-93
2023/01/24 13:26:39;;;;;;;43.13;18.92;;;4.10;99.90;;;;;;4938279;29;20027;-92
2023/01/24 13:29:37;;;;;;;48.03;20.00;;;4.10;99.90;;;;;;4880771;29;20033;-91